sensor_id;sensor_type;location;lat;lon;timestamp;P1;durP1;ratioP1;P2;durP2;ratioP2
12871;SDS011;6504;53.766;9.626;2023-04-10T00:00:31;31.50;;;24.83;;
12871;SDS011;6504;53.766;9.626;2023-04-10T00:03:00;30.77;;;24.70;;
12871;SDS011;6504;53.766;9.626;2023-04-10T00:05:30;31.63;;;26.03;;
12871;SDS011;6504;53.766;9.626;2023-04-10T00:07:59;32.77;;;25.80;;
12871;SDS011;6504;53.766;9.626;2023-04-10T00:10:28;33.10;;;25.90;;
12871;SDS011;6504;53.766;9.626;2023-04-10T00:12:57;31.40;;;25.80;;
12871;SDS011;6504;53.766;9.626;2023-04-10T00:15:26;34.20;;;25.87;;
12871;SDS011;6504;53.766;9.626;2023-04-10T00:17:55;29.50;;;24.87;;
12871;SDS011;6504;53.766;9.626;2023-04-10T00:20:23;33.40;;;26.17;;
12871;SDS011;6504;53.766;9.626;2023-04-10T00:22:53;32.57;;;26.60;;
12871;SDS011;6504;53.766;9.626;2023-04-10T00:25:21;33.40;;;25.50;;
12871;SDS011;6504;53.766;9.626;2023-04-10T00:27:49;31.50;;;25.17;;
12871;SDS011;6504;53.766;9.626;2023-04-10T00:30:18;30.87;;;26.17;;
12871;SDS011;6504;53.766;9.626;2023-04-10T00:32:46;34.07;;;26.77;;
12871;SDS011;6504;53.766;9.626;2023-04-10T00:35:14;32.10;;;25.43;;
12871;SDS011;6504;53.766;9.626;2023-04-10T00:37:42;31.77;;;25.53;;
12871;SDS011;6504;53.766;9.626;2023-04-10T00:40:12;31.30;;;25.60;;
12871;SDS011;6504;53.766;9.626;2023-04-10T00:42:40;30.60;;;25.23;;
12871;SDS011;6504;53.766;9.626;2023-04-10T00:45:08;32.23;;;25.87;;
12871;SDS011;6504;53.766;9.626;2023-04-10T00:47:38;28.53;;;24.17;;
12871;SDS011;6504;53.766;9.626;2023-04-10T00:50:06;32.17;;;25.70;;
12871;SDS011;6504;53.766;9.626;2023-04-10T00:52:34;34.50;;;26.13;;
12871;SDS011;6504;53.766;9.626;2023-04-10T00:55:03;32.97;;;26.17;;
12871;SDS011;6504;53.766;9.626;2023-04-10T00:57:33;35.30;;;27.63;;
12871;SDS011;6504;53.766;9.626;2023-04-10T01:00:02;34.63;;;27.33;;
12871;SDS011;6504;53.766;9.626;2023-04-10T01:02:31;30.10;;;25.27;;
12871;SDS011;6504;53.766;9.626;2023-04-10T01:05:00;33.03;;;27.13;;
12871;SDS011;6504;53.766;9.626;2023-04-10T01:07:30;32.90;;;27.40;;
12871;SDS011;6504;53.766;9.626;2023-04-10T01:10:07;33.10;;;26.77;;
12871;SDS011;6504;53.766;9.626;2023-04-10T01:12:50;32.00;;;27.43;;
12871;SDS011;6504;53.766;9.626;2023-04-10T01:15:26;30.47;;;25.43;;
12871;SDS011;6504;53.766;9.626;2023-04-10T01:17:57;32.67;;;27.03;;
12871;SDS011;6504;53.766;9.626;2023-04-10T01:20:30;33.83;;;27.03;;
12871;SDS011;6504;53.766;9.626;2023-04-10T01:23:05;32.30;;;26.83;;
12871;SDS011;6504;53.766;9.626;2023-04-10T01:25:47;35.30;;;27.33;;
12871;SDS011;6504;53.766;9.626;2023-04-10T01:31:17;33.93;;;28.07;;
12871;SDS011;6504;53.766;9.626;2023-04-10T01:33:48;34.10;;;27.17;;
12871;SDS011;6504;53.766;9.626;2023-04-10T01:36:21;35.63;;;27.67;;
12871;SDS011;6504;53.766;9.626;2023-04-10T01:38:53;34.17;;;26.97;;
12871;SDS011;6504;53.766;9.626;2023-04-10T01:41:23;31.63;;;26.73;;
12871;SDS011;6504;53.766;9.626;2023-04-10T01:43:54;34.63;;;26.77;;
12871;SDS011;6504;53.766;9.626;2023-04-10T01:46:24;32.77;;;26.30;;
12871;SDS011;6504;53.766;9.626;2023-04-10T01:48:54;32.57;;;27.40;;
12871;SDS011;6504;53.766;9.626;2023-04-10T01:51:23;30.83;;;25.53;;
12871;SDS011;6504;53.766;9.626;2023-04-10T01:53:51;31.37;;;25.40;;
12871;SDS011;6504;53.766;9.626;2023-04-10T01:56:20;31.03;;;26.53;;
12871;SDS011;6504;53.766;9.626;2023-04-10T01:58:48;35.77;;;27.33;;
12871;SDS011;6504;53.766;9.626;2023-04-10T02:01:20;33.23;;;26.87;;
12871;SDS011;6504;53.766;9.626;2023-04-10T02:03:55;33.30;;;26.40;;
12871;SDS011;6504;53.766;9.626;2023-04-10T02:06:26;32.53;;;26.60;;
12871;SDS011;6504;53.766;9.626;2023-04-10T02:09:01;29.77;;;25.93;;
12871;SDS011;6504;53.766;9.626;2023-04-10T02:11:37;32.87;;;26.90;;
12871;SDS011;6504;53.766;9.626;2023-04-10T02:14:10;33.47;;;26.70;;
12871;SDS011;6504;53.766;9.626;2023-04-10T02:16:45;33.97;;;26.70;;
12871;SDS011;6504;53.766;9.626;2023-04-10T02:19:15;34.70;;;27.67;;
12871;SDS011;6504;53.766;9.626;2023-04-10T02:21:44;32.47;;;27.20;;
12871;SDS011;6504;53.766;9.626;2023-04-10T02:24:13;32.37;;;27.07;;
12871;SDS011;6504;53.766;9.626;2023-04-10T02:26:44;34.33;;;27.23;;
12871;SDS011;6504;53.766;9.626;2023-04-10T02:29:13;35.07;;;26.90;;
12871;SDS011;6504;53.766;9.626;2023-04-10T02:31:41;34.20;;;27.20;;
12871;SDS011;6504;53.766;9.626;2023-04-10T02:34:11;32.60;;;26.83;;
12871;SDS011;6504;53.766;9.626;2023-04-10T02:36:39;31.67;;;26.50;;
12871;SDS011;6504;53.766;9.626;2023-04-10T02:39:07;35.43;;;27.40;;
12871;SDS011;6504;53.766;9.626;2023-04-10T02:41:35;30.97;;;26.27;;
12871;SDS011;6504;53.766;9.626;2023-04-10T02:44:03;34.70;;;27.10;;
12871;SDS011;6504;53.766;9.626;2023-04-10T02:46:32;34.90;;;27.10;;
12871;SDS011;6504;53.766;9.626;2023-04-10T02:49:00;34.50;;;27.73;;
12871;SDS011;6504;53.766;9.626;2023-04-10T02:51:32;32.73;;;26.83;;
12871;SDS011;6504;53.766;9.626;2023-04-10T02:54:01;33.50;;;27.23;;
12871;SDS011;6504;53.766;9.626;2023-04-10T02:56:32;36.83;;;28.30;;
12871;SDS011;6504;53.766;9.626;2023-04-10T02:59:00;35.07;;;27.50;;
12871;SDS011;6504;53.766;9.626;2023-04-10T03:01:28;33.47;;;26.47;;
12871;SDS011;6504;53.766;9.626;2023-04-10T03:03:57;36.33;;;27.43;;
12871;SDS011;6504;53.766;9.626;2023-04-10T03:06:25;34.23;;;25.90;;
12871;SDS011;6504;53.766;9.626;2023-04-10T03:08:55;34.40;;;27.03;;
12871;SDS011;6504;53.766;9.626;2023-04-10T03:11:23;35.40;;;27.07;;
12871;SDS011;6504;53.766;9.626;2023-04-10T03:13:51;34.27;;;26.60;;
12871;SDS011;6504;53.766;9.626;2023-04-10T03:16:19;34.73;;;27.10;;
12871;SDS011;6504;53.766;9.626;2023-04-10T03:18:47;31.87;;;26.33;;
12871;SDS011;6504;53.766;9.626;2023-04-10T03:21:15;33.47;;;26.60;;
12871;SDS011;6504;53.766;9.626;2023-04-10T03:23:43;34.47;;;27.07;;
12871;SDS011;6504;53.766;9.626;2023-04-10T03:26:13;32.57;;;26.23;;
12871;SDS011;6504;53.766;9.626;2023-04-10T03:28:43;36.03;;;28.07;;
12871;SDS011;6504;53.766;9.626;2023-04-10T03:31:11;34.27;;;27.10;;
12871;SDS011;6504;53.766;9.626;2023-04-10T03:33:39;31.47;;;26.00;;
12871;SDS011;6504;53.766;9.626;2023-04-10T03:36:08;32.27;;;26.30;;
12871;SDS011;6504;53.766;9.626;2023-04-10T03:38:37;30.97;;;25.67;;
12871;SDS011;6504;53.766;9.626;2023-04-10T03:41:05;32.17;;;26.57;;
12871;SDS011;6504;53.766;9.626;2023-04-10T03:43:35;31.57;;;25.43;;
12871;SDS011;6504;53.766;9.626;2023-04-10T03:46:03;32.57;;;26.47;;
12871;SDS011;6504;53.766;9.626;2023-04-10T03:48:31;30.97;;;25.50;;
12871;SDS011;6504;53.766;9.626;2023-04-10T03:50:59;32.27;;;25.47;;
12871;SDS011;6504;53.766;9.626;2023-04-10T03:53:28;32.63;;;26.50;;
12871;SDS011;6504;53.766;9.626;2023-04-10T03:56:01;30.50;;;25.20;;
12871;SDS011;6504;53.766;9.626;2023-04-10T03:58:29;31.03;;;25.87;;
12871;SDS011;6504;53.766;9.626;2023-04-10T04:00:58;31.80;;;26.63;;
12871;SDS011;6504;53.766;9.626;2023-04-10T04:03:27;31.80;;;25.77;;
12871;SDS011;6504;53.766;9.626;2023-04-10T04:05:55;29.17;;;23.47;;
12871;SDS011;6504;53.766;9.626;2023-04-10T04:08:23;31.67;;;25.10;;
12871;SDS011;6504;53.766;9.626;2023-04-10T04:10:51;31.97;;;25.63;;
12871;SDS011;6504;53.766;9.626;2023-04-10T04:13:19;30.13;;;24.90;;
12871;SDS011;6504;53.766;9.626;2023-04-10T04:15:47;30.30;;;24.63;;
12871;SDS011;6504;53.766;9.626;2023-04-10T04:18:16;29.43;;;24.07;;
12871;SDS011;6504;53.766;9.626;2023-04-10T04:20:44;31.30;;;24.97;;
12871;SDS011;6504;53.766;9.626;2023-04-10T04:23:12;32.13;;;25.10;;
12871;SDS011;6504;53.766;9.626;2023-04-10T04:25:40;33.47;;;25.77;;
12871;SDS011;6504;53.766;9.626;2023-04-10T04:28:09;33.00;;;26.17;;
12871;SDS011;6504;53.766;9.626;2023-04-10T04:30:38;29.70;;;24.93;;
12871;SDS011;6504;53.766;9.626;2023-04-10T04:33:06;29.50;;;24.40;;
12871;SDS011;6504;53.766;9.626;2023-04-10T04:35:36;31.97;;;25.13;;
12871;SDS011;6504;53.766;9.626;2023-04-10T04:38:04;32.73;;;25.23;;
12871;SDS011;6504;53.766;9.626;2023-04-10T04:40:32;30.13;;;24.90;;
12871;SDS011;6504;53.766;9.626;2023-04-10T04:43:00;30.63;;;24.87;;
12871;SDS011;6504;53.766;9.626;2023-04-10T04:45:28;29.33;;;24.03;;
12871;SDS011;6504;53.766;9.626;2023-04-10T04:47:56;30.63;;;25.33;;
12871;SDS011;6504;53.766;9.626;2023-04-10T04:50:24;29.50;;;24.13;;
12871;SDS011;6504;53.766;9.626;2023-04-10T04:52:54;32.33;;;25.47;;
12871;SDS011;6504;53.766;9.626;2023-04-10T04:55:22;30.80;;;24.53;;
12871;SDS011;6504;53.766;9.626;2023-04-10T04:57:50;29.90;;;24.67;;
12871;SDS011;6504;53.766;9.626;2023-04-10T05:00:18;31.50;;;25.30;;
12871;SDS011;6504;53.766;9.626;2023-04-10T05:02:46;32.47;;;25.87;;
12871;SDS011;6504;53.766;9.626;2023-04-10T05:05:14;31.53;;;24.83;;
12871;SDS011;6504;53.766;9.626;2023-04-10T05:07:42;33.80;;;26.23;;
12871;SDS011;6504;53.766;9.626;2023-04-10T05:10:12;33.33;;;24.90;;
12871;SDS011;6504;53.766;9.626;2023-04-10T05:12:40;30.17;;;25.27;;
12871;SDS011;6504;53.766;9.626;2023-04-10T05:15:08;32.70;;;25.53;;
12871;SDS011;6504;53.766;9.626;2023-04-10T05:17:37;34.10;;;25.20;;
12871;SDS011;6504;53.766;9.626;2023-04-10T05:20:05;29.20;;;24.37;;
12871;SDS011;6504;53.766;9.626;2023-04-10T05:22:35;34.70;;;26.50;;
12871;SDS011;6504;53.766;9.626;2023-04-10T05:25:04;30.80;;;24.57;;
12871;SDS011;6504;53.766;9.626;2023-04-10T05:27:34;30.70;;;24.83;;
12871;SDS011;6504;53.766;9.626;2023-04-10T05:30:03;32.43;;;25.67;;
12871;SDS011;6504;53.766;9.626;2023-04-10T05:32:31;31.60;;;26.07;;
12871;SDS011;6504;53.766;9.626;2023-04-10T05:34:59;30.90;;;25.07;;
12871;SDS011;6504;53.766;9.626;2023-04-10T05:37:27;30.57;;;24.47;;
12871;SDS011;6504;53.766;9.626;2023-04-10T05:39:55;29.40;;;24.37;;
12871;SDS011;6504;53.766;9.626;2023-04-10T05:42:23;28.93;;;24.23;;
12871;SDS011;6504;53.766;9.626;2023-04-10T05:44:53;30.10;;;24.37;;
12871;SDS011;6504;53.766;9.626;2023-04-10T05:47:21;30.07;;;23.90;;
12871;SDS011;6504;53.766;9.626;2023-04-10T05:49:49;27.40;;;23.47;;
12871;SDS011;6504;53.766;9.626;2023-04-10T05:52:17;30.20;;;23.20;;
12871;SDS011;6504;53.766;9.626;2023-04-10T05:54:45;29.37;;;24.00;;
12871;SDS011;6504;53.766;9.626;2023-04-10T05:57:13;28.50;;;23.80;;
12871;SDS011;6504;53.766;9.626;2023-04-10T05:59:42;30.77;;;24.23;;
12871;SDS011;6504;53.766;9.626;2023-04-10T06:02:11;27.20;;;23.53;;
12871;SDS011;6504;53.766;9.626;2023-04-10T06:04:39;30.23;;;24.47;;
12871;SDS011;6504;53.766;9.626;2023-04-10T06:07:08;31.87;;;24.47;;
12871;SDS011;6504;53.766;9.626;2023-04-10T06:09:36;29.90;;;23.63;;
12871;SDS011;6504;53.766;9.626;2023-04-10T06:12:04;28.97;;;24.03;;
12871;SDS011;6504;53.766;9.626;2023-04-10T06:14:32;29.67;;;23.83;;
12871;SDS011;6504;53.766;9.626;2023-04-10T06:17:00;27.77;;;23.63;;
12871;SDS011;6504;53.766;9.626;2023-04-10T06:19:29;28.40;;;23.67;;
12871;SDS011;6504;53.766;9.626;2023-04-10T06:21:57;26.73;;;23.07;;
12871;SDS011;6504;53.766;9.626;2023-04-10T06:24:25;27.80;;;22.47;;
12871;SDS011;6504;53.766;9.626;2023-04-10T06:26:53;25.93;;;22.63;;
12871;SDS011;6504;53.766;9.626;2023-04-10T06:29:22;26.40;;;23.50;;
12871;SDS011;6504;53.766;9.626;2023-04-10T06:31:50;28.87;;;24.47;;
12871;SDS011;6504;53.766;9.626;2023-04-10T06:34:18;27.40;;;23.07;;
12871;SDS011;6504;53.766;9.626;2023-04-10T06:36:48;26.20;;;23.33;;
12871;SDS011;6504;53.766;9.626;2023-04-10T06:39:16;27.67;;;24.20;;
12871;SDS011;6504;53.766;9.626;2023-04-10T06:41:44;28.10;;;23.67;;
12871;SDS011;6504;53.766;9.626;2023-04-10T06:44:12;27.93;;;22.57;;
12871;SDS011;6504;53.766;9.626;2023-04-10T06:46:40;25.80;;;22.83;;
12871;SDS011;6504;53.766;9.626;2023-04-10T06:49:08;25.40;;;22.07;;
12871;SDS011;6504;53.766;9.626;2023-04-10T06:51:36;28.03;;;22.47;;
12871;SDS011;6504;53.766;9.626;2023-04-10T06:54:06;24.97;;;22.10;;
12871;SDS011;6504;53.766;9.626;2023-04-10T06:56:34;25.63;;;22.43;;
12871;SDS011;6504;53.766;9.626;2023-04-10T06:59:02;26.00;;;21.30;;
12871;SDS011;6504;53.766;9.626;2023-04-10T07:01:30;26.33;;;22.83;;
12871;SDS011;6504;53.766;9.626;2023-04-10T07:03:58;24.20;;;21.07;;
12871;SDS011;6504;53.766;9.626;2023-04-10T07:06:26;24.53;;;21.10;;
12871;SDS011;6504;53.766;9.626;2023-04-10T07:08:54;25.83;;;21.87;;
12871;SDS011;6504;53.766;9.626;2023-04-10T07:11:24;28.90;;;23.33;;
12871;SDS011;6504;53.766;9.626;2023-04-10T07:13:52;24.80;;;22.07;;
12871;SDS011;6504;53.766;9.626;2023-04-10T07:16:23;24.70;;;21.23;;
12871;SDS011;6504;53.766;9.626;2023-04-10T07:18:52;24.30;;;21.70;;
12871;SDS011;6504;53.766;9.626;2023-04-10T07:21:21;24.17;;;21.47;;
12871;SDS011;6504;53.766;9.626;2023-04-10T07:23:49;24.07;;;20.87;;
12871;SDS011;6504;53.766;9.626;2023-04-10T07:26:17;23.40;;;20.60;;
12871;SDS011;6504;53.766;9.626;2023-04-10T07:28:47;22.97;;;20.33;;
12871;SDS011;6504;53.766;9.626;2023-04-10T07:31:15;22.43;;;20.13;;
12871;SDS011;6504;53.766;9.626;2023-04-10T07:33:45;22.30;;;19.90;;
12871;SDS011;6504;53.766;9.626;2023-04-10T07:36:13;23.50;;;20.17;;
12871;SDS011;6504;53.766;9.626;2023-04-10T07:38:42;20.83;;;18.57;;
12871;SDS011;6504;53.766;9.626;2023-04-10T07:41:10;21.30;;;19.10;;
12871;SDS011;6504;53.766;9.626;2023-04-10T07:43:38;22.30;;;19.90;;
12871;SDS011;6504;53.766;9.626;2023-04-10T07:46:08;21.63;;;19.33;;
12871;SDS011;6504;53.766;9.626;2023-04-10T07:48:36;20.77;;;18.63;;
12871;SDS011;6504;53.766;9.626;2023-04-10T07:51:04;19.97;;;17.87;;
12871;SDS011;6504;53.766;9.626;2023-04-10T07:53:34;21.70;;;19.40;;
12871;SDS011;6504;53.766;9.626;2023-04-10T07:56:03;19.90;;;17.80;;
12871;SDS011;6504;53.766;9.626;2023-04-10T07:58:31;20.10;;;18.00;;
12871;SDS011;6504;53.766;9.626;2023-04-10T08:00:59;20.13;;;18.00;;
12871;SDS011;6504;53.766;9.626;2023-04-10T08:03:29;20.47;;;18.37;;
12871;SDS011;6504;53.766;9.626;2023-04-10T08:05:57;19.73;;;17.77;;
12871;SDS011;6504;53.766;9.626;2023-04-10T08:08:25;20.63;;;18.60;;
12871;SDS011;6504;53.766;9.626;2023-04-10T08:10:53;19.33;;;17.37;;
12871;SDS011;6504;53.766;9.626;2023-04-10T08:13:21;19.27;;;17.27;;
12871;SDS011;6504;53.766;9.626;2023-04-10T08:15:49;18.70;;;16.87;;
12871;SDS011;6504;53.766;9.626;2023-04-10T08:18:17;18.80;;;16.80;;
12871;SDS011;6504;53.766;9.626;2023-04-10T08:20:47;17.83;;;16.03;;
12871;SDS011;6504;53.766;9.626;2023-04-10T08:23:15;17.03;;;15.33;;
12871;SDS011;6504;53.766;9.626;2023-04-10T08:25:46;16.23;;;14.57;;
12871;SDS011;6504;53.766;9.626;2023-04-10T08:28:14;17.53;;;15.77;;
12871;SDS011;6504;53.766;9.626;2023-04-10T08:30:42;18.27;;;16.37;;
12871;SDS011;6504;53.766;9.626;2023-04-10T08:33:10;18.80;;;17.07;;
12871;SDS011;6504;53.766;9.626;2023-04-10T08:35:38;17.67;;;15.97;;
12871;SDS011;6504;53.766;9.626;2023-04-10T08:38:08;16.33;;;14.63;;
12871;SDS011;6504;53.766;9.626;2023-04-10T08:40:39;16.20;;;14.60;;
12871;SDS011;6504;53.766;9.626;2023-04-10T08:43:10;15.57;;;14.07;;
12871;SDS011;6504;53.766;9.626;2023-04-10T08:45:39;15.47;;;13.97;;
12871;SDS011;6504;53.766;9.626;2023-04-10T08:48:07;16.33;;;14.73;;
12871;SDS011;6504;53.766;9.626;2023-04-10T08:50:37;15.50;;;14.00;;
12871;SDS011;6504;53.766;9.626;2023-04-10T08:53:11;14.77;;;13.37;;
12871;SDS011;6504;53.766;9.626;2023-04-10T08:55:40;15.30;;;13.80;;
12871;SDS011;6504;53.766;9.626;2023-04-10T08:58:08;15.00;;;13.60;;
12871;SDS011;6504;53.766;9.626;2023-04-10T09:00:39;15.50;;;14.00;;
12871;SDS011;6504;53.766;9.626;2023-04-10T09:03:07;15.10;;;13.60;;
12871;SDS011;6504;53.766;9.626;2023-04-10T09:05:39;14.10;;;12.80;;
12871;SDS011;6504;53.766;9.626;2023-04-10T09:08:08;14.20;;;12.87;;
12871;SDS011;6504;53.766;9.626;2023-04-10T09:10:44;14.77;;;13.27;;
12871;SDS011;6504;53.766;9.626;2023-04-10T09:13:34;13.67;;;12.37;;
12871;SDS011;6504;53.766;9.626;2023-04-10T09:16:08;13.67;;;12.37;;
12871;SDS011;6504;53.766;9.626;2023-04-10T09:18:41;12.90;;;11.60;;
12871;SDS011;6504;53.766;9.626;2023-04-10T09:21:13;13.93;;;12.63;;
12871;SDS011;6504;53.766;9.626;2023-04-10T09:23:45;13.20;;;12.00;;
12871;SDS011;6504;53.766;9.626;2023-04-10T09:26:23;13.17;;;12.07;;
12871;SDS011;6504;53.766;9.626;2023-04-10T09:28:56;14.10;;;12.80;;
12871;SDS011;6504;53.766;9.626;2023-04-10T09:31:28;13.10;;;11.90;;
12871;SDS011;6504;53.766;9.626;2023-04-10T09:34:09;13.43;;;12.23;;
12871;SDS011;6504;53.766;9.626;2023-04-10T09:36:51;14.03;;;12.73;;
12871;SDS011;6504;53.766;9.626;2023-04-10T09:39:37;13.90;;;12.50;;
12871;SDS011;6504;53.766;9.626;2023-04-10T09:42:09;13.50;;;12.13;;
12871;SDS011;6504;53.766;9.626;2023-04-10T09:44:40;12.57;;;11.37;;
12871;SDS011;6504;53.766;9.626;2023-04-10T09:47:15;14.07;;;12.77;;
12871;SDS011;6504;53.766;9.626;2023-04-10T09:49:48;13.50;;;12.30;;
12871;SDS011;6504;53.766;9.626;2023-04-10T09:52:22;11.77;;;10.67;;
12871;SDS011;6504;53.766;9.626;2023-04-10T09:54:55;13.20;;;12.00;;
12871;SDS011;6504;53.766;9.626;2023-04-10T09:57:29;12.70;;;11.47;;
12871;SDS011;6504;53.766;9.626;2023-04-10T10:00:02;12.87;;;11.73;;
12871;SDS011;6504;53.766;9.626;2023-04-10T10:02:35;13.50;;;12.20;;
12871;SDS011;6504;53.766;9.626;2023-04-10T10:05:09;11.33;;;10.07;;
12871;SDS011;6504;53.766;9.626;2023-04-10T10:07:40;11.07;;;10.00;;
12871;SDS011;6504;53.766;9.626;2023-04-10T10:10:12;10.20;;;9.30;;
12871;SDS011;6504;53.766;9.626;2023-04-10T10:12:43;10.37;;;9.33;;
12871;SDS011;6504;53.766;9.626;2023-04-10T10:15:20;10.70;;;9.27;;
12871;SDS011;6504;53.766;9.626;2023-04-10T10:18:00;11.43;;;10.43;;
12871;SDS011;6504;53.766;9.626;2023-04-10T10:20:36;10.63;;;9.53;;
12871;SDS011;6504;53.766;9.626;2023-04-10T10:23:14;10.20;;;9.20;;
12871;SDS011;6504;53.766;9.626;2023-04-10T10:25:48;10.23;;;9.07;;
12871;SDS011;6504;53.766;9.626;2023-04-10T10:28:22;9.87;;;9.07;;
12871;SDS011;6504;53.766;9.626;2023-04-10T10:30:53;9.90;;;8.90;;
12871;SDS011;6504;53.766;9.626;2023-04-10T10:33:22;9.87;;;8.97;;
12871;SDS011;6504;53.766;9.626;2023-04-10T10:35:58;10.50;;;9.60;;
12871;SDS011;6504;53.766;9.626;2023-04-10T10:38:29;10.30;;;9.43;;
12871;SDS011;6504;53.766;9.626;2023-04-10T10:41:01;10.07;;;8.93;;
12871;SDS011;6504;53.766;9.626;2023-04-10T10:43:45;11.43;;;8.60;;
12871;SDS011;6504;53.766;9.626;2023-04-10T10:46:23;9.30;;;8.50;;
12871;SDS011;6504;53.766;9.626;2023-04-10T10:49:02;8.60;;;7.90;;
12871;SDS011;6504;53.766;9.626;2023-04-10T10:51:42;8.43;;;7.60;;
12871;SDS011;6504;53.766;9.626;2023-04-10T10:54:29;9.23;;;8.27;;
12871;SDS011;6504;53.766;9.626;2023-04-10T10:57:01;8.33;;;7.60;;
12871;SDS011;6504;53.766;9.626;2023-04-10T10:59:57;13.57;;;8.47;;
12871;SDS011;6504;53.766;9.626;2023-04-10T11:02:27;7.90;;;7.20;;
12871;SDS011;6504;53.766;9.626;2023-04-10T11:04:59;10.13;;;7.77;;
12871;SDS011;6504;53.766;9.626;2023-04-10T11:13:29;7.80;;;7.10;;
12871;SDS011;6504;53.766;9.626;2023-04-10T11:16:04;7.73;;;7.03;;
12871;SDS011;6504;53.766;9.626;2023-04-10T11:22:01;8.93;;;7.43;;
12871;SDS011;6504;53.766;9.626;2023-04-10T11:24:55;9.27;;;7.40;;
12871;SDS011;6504;53.766;9.626;2023-04-10T11:27:41;8.03;;;7.30;;
12871;SDS011;6504;53.766;9.626;2023-04-10T11:30:26;8.27;;;7.47;;
12871;SDS011;6504;53.766;9.626;2023-04-10T11:33:01;8.23;;;7.47;;
12871;SDS011;6504;53.766;9.626;2023-04-10T11:35:35;7.87;;;7.17;;
12871;SDS011;6504;53.766;9.626;2023-04-10T11:38:12;6.87;;;6.30;;
12871;SDS011;6504;53.766;9.626;2023-04-10T11:40:55;7.07;;;6.43;;
12871;SDS011;6504;53.766;9.626;2023-04-10T11:43:30;7.20;;;6.53;;
12871;SDS011;6504;53.766;9.626;2023-04-10T11:46:04;7.67;;;6.80;;
12871;SDS011;6504;53.766;9.626;2023-04-10T11:48:35;7.30;;;6.70;;
12871;SDS011;6504;53.766;9.626;2023-04-10T11:51:05;8.17;;;7.23;;
12871;SDS011;6504;53.766;9.626;2023-04-10T11:53:41;7.40;;;6.70;;
12871;SDS011;6504;53.766;9.626;2023-04-10T11:56:14;8.47;;;7.20;;
12871;SDS011;6504;53.766;9.626;2023-04-10T11:58:47;6.87;;;6.20;;
12871;SDS011;6504;53.766;9.626;2023-04-10T12:01:24;6.70;;;6.00;;
12871;SDS011;6504;53.766;9.626;2023-04-10T12:03:55;9.47;;;6.93;;
12871;SDS011;6504;53.766;9.626;2023-04-10T12:06:27;10.30;;;7.27;;
12871;SDS011;6504;53.766;9.626;2023-04-10T12:08:58;7.57;;;6.77;;
12871;SDS011;6504;53.766;9.626;2023-04-10T12:11:27;7.63;;;6.90;;
12871;SDS011;6504;53.766;9.626;2023-04-10T12:13:57;10.47;;;6.83;;
12871;SDS011;6504;53.766;9.626;2023-04-10T12:16:29;7.60;;;6.80;;
12871;SDS011;6504;53.766;9.626;2023-04-10T12:19:01;6.93;;;6.23;;
12871;SDS011;6504;53.766;9.626;2023-04-10T12:21:34;7.40;;;6.43;;
12871;SDS011;6504;53.766;9.626;2023-04-10T12:24:06;6.80;;;6.20;;
12871;SDS011;6504;53.766;9.626;2023-04-10T12:26:35;8.60;;;6.90;;
12871;SDS011;6504;53.766;9.626;2023-04-10T12:29:06;6.87;;;6.20;;
12871;SDS011;6504;53.766;9.626;2023-04-10T12:31:38;7.03;;;6.43;;
12871;SDS011;6504;53.766;9.626;2023-04-10T12:34:08;7.13;;;6.50;;
12871;SDS011;6504;53.766;9.626;2023-04-10T12:36:50;8.07;;;7.37;;
12871;SDS011;6504;53.766;9.626;2023-04-10T12:39:23;6.77;;;6.17;;
12871;SDS011;6504;53.766;9.626;2023-04-10T12:41:53;7.07;;;6.47;;
12871;SDS011;6504;53.766;9.626;2023-04-10T12:44:52;7.00;;;6.40;;
12871;SDS011;6504;53.766;9.626;2023-04-10T12:47:25;6.63;;;6.03;;
12871;SDS011;6504;53.766;9.626;2023-04-10T12:50:03;6.73;;;6.20;;
12871;SDS011;6504;53.766;9.626;2023-04-10T12:52:34;5.97;;;5.43;;
12871;SDS011;6504;53.766;9.626;2023-04-10T12:55:12;6.10;;;5.50;;
12871;SDS011;6504;53.766;9.626;2023-04-10T12:57:45;5.60;;;5.10;;
12871;SDS011;6504;53.766;9.626;2023-04-10T13:00:31;6.30;;;5.70;;
12871;SDS011;6504;53.766;9.626;2023-04-10T13:03:09;6.07;;;5.63;;
12871;SDS011;6504;53.766;9.626;2023-04-10T13:05:42;7.67;;;5.93;;
12871;SDS011;6504;53.766;9.626;2023-04-10T13:08:13;6.33;;;5.73;;
12871;SDS011;6504;53.766;9.626;2023-04-10T13:10:46;6.13;;;5.63;;
12871;SDS011;6504;53.766;9.626;2023-04-10T13:13:15;6.43;;;5.87;;
12871;SDS011;6504;53.766;9.626;2023-04-10T13:15:45;6.80;;;5.63;;
12871;SDS011;6504;53.766;9.626;2023-04-10T13:18:17;6.10;;;5.60;;
12871;SDS011;6504;53.766;9.626;2023-04-10T13:20:47;5.77;;;5.27;;
12871;SDS011;6504;53.766;9.626;2023-04-10T13:23:17;5.43;;;4.93;;
12871;SDS011;6504;53.766;9.626;2023-04-10T13:25:47;4.93;;;4.53;;
12871;SDS011;6504;53.766;9.626;2023-04-10T13:28:17;4.93;;;4.43;;
12871;SDS011;6504;53.766;9.626;2023-04-10T13:30:47;5.87;;;5.17;;
12871;SDS011;6504;53.766;9.626;2023-04-10T13:33:19;6.20;;;5.50;;
12871;SDS011;6504;53.766;9.626;2023-04-10T13:35:51;6.27;;;5.77;;
12871;SDS011;6504;53.766;9.626;2023-04-10T13:38:23;6.67;;;5.53;;
12871;SDS011;6504;53.766;9.626;2023-04-10T13:40:53;5.40;;;4.90;;
12871;SDS011;6504;53.766;9.626;2023-04-10T13:43:25;5.07;;;4.67;;
12871;SDS011;6504;53.766;9.626;2023-04-10T13:45:57;5.23;;;4.80;;
12871;SDS011;6504;53.766;9.626;2023-04-10T13:48:29;4.80;;;4.40;;
12871;SDS011;6504;53.766;9.626;2023-04-10T13:51:06;5.07;;;4.57;;
12871;SDS011;6504;53.766;9.626;2023-04-10T13:53:39;4.70;;;4.30;;
12871;SDS011;6504;53.766;9.626;2023-04-10T13:56:12;5.00;;;4.50;;
12871;SDS011;6504;53.766;9.626;2023-04-10T13:58:45;4.90;;;4.50;;
12871;SDS011;6504;53.766;9.626;2023-04-10T14:01:15;5.13;;;4.30;;
12871;SDS011;6504;53.766;9.626;2023-04-10T14:03:52;4.73;;;4.33;;
12871;SDS011;6504;53.766;9.626;2023-04-10T14:06:22;5.07;;;4.63;;
12871;SDS011;6504;53.766;9.626;2023-04-10T14:08:53;5.10;;;4.60;;
12871;SDS011;6504;53.766;9.626;2023-04-10T14:11:25;7.67;;;4.63;;
12871;SDS011;6504;53.766;9.626;2023-04-10T14:13:57;5.53;;;4.60;;
12871;SDS011;6504;53.766;9.626;2023-04-10T14:16:27;4.23;;;3.83;;
12871;SDS011;6504;53.766;9.626;2023-04-10T14:19:03;5.13;;;4.23;;
12871;SDS011;6504;53.766;9.626;2023-04-10T14:21:32;5.27;;;4.77;;
12871;SDS011;6504;53.766;9.626;2023-04-10T14:24:03;5.87;;;5.10;;
12871;SDS011;6504;53.766;9.626;2023-04-10T14:26:36;5.30;;;4.80;;
12871;SDS011;6504;53.766;9.626;2023-04-10T14:29:06;4.90;;;4.50;;
12871;SDS011;6504;53.766;9.626;2023-04-10T14:31:41;5.07;;;4.57;;
12871;SDS011;6504;53.766;9.626;2023-04-10T14:34:29;6.10;;;5.20;;
12871;SDS011;6504;53.766;9.626;2023-04-10T14:36:59;5.37;;;4.97;;
12871;SDS011;6504;53.766;9.626;2023-04-10T14:39:29;5.93;;;5.43;;
12871;SDS011;6504;53.766;9.626;2023-04-10T14:42:02;5.60;;;5.17;;
12871;SDS011;6504;53.766;9.626;2023-04-10T14:44:36;5.53;;;5.03;;
12871;SDS011;6504;53.766;9.626;2023-04-10T14:47:09;6.07;;;5.47;;
12871;SDS011;6504;53.766;9.626;2023-04-10T14:49:43;5.90;;;5.30;;
12871;SDS011;6504;53.766;9.626;2023-04-10T14:52:16;6.97;;;5.07;;
12871;SDS011;6504;53.766;9.626;2023-04-10T14:54:46;5.90;;;5.20;;
12871;SDS011;6504;53.766;9.626;2023-04-10T14:57:15;7.20;;;6.17;;
12871;SDS011;6504;53.766;9.626;2023-04-10T14:59:45;6.70;;;5.33;;
12871;SDS011;6504;53.766;9.626;2023-04-10T15:02:17;6.00;;;5.50;;
12871;SDS011;6504;53.766;9.626;2023-04-10T15:04:51;6.70;;;6.00;;
12871;SDS011;6504;53.766;9.626;2023-04-10T15:07:23;7.50;;;6.47;;
12871;SDS011;6504;53.766;9.626;2023-04-10T15:09:56;6.47;;;5.87;;
12871;SDS011;6504;53.766;9.626;2023-04-10T15:12:27;7.10;;;6.40;;
12871;SDS011;6504;53.766;9.626;2023-04-10T15:14:57;7.37;;;6.63;;
12871;SDS011;6504;53.766;9.626;2023-04-10T15:17:28;7.00;;;6.40;;